Time;durP1;ratioP1;P1;durP2;ratioP2;P2;SDS_P1;SDS_P2;PMS_P1;PMS_P2;Temp;Humidity;BMP_temperature;BMP_pressure;BME280_temperature;BME280_humidity;BME280_pressure;Samples;Min_cycle;Max_cycle;Signal;HPM_P1;HPM_P2
2022/12/08 00:02:16;;;;;;;;;;;;;;;16.98;48.39;100757.56;4994095;28;2422;-46
2022/12/08 00:10:10;;;;;;;;;;;;;;;17.75;48.45;100751.88;4997130;28;1112;-47
2022/12/08 00:12:36;;;;;;;;;;;;;;;18.28;47.56;100747.75;4993102;28;1195;-47
2022/12/08 00:15:01;;;;;;;;;;;;;;;17.30;48.27;100747.38;4997469;28;1121;-45
2022/12/08 00:17:27;;;;;;;;;;;;;;;17.07;47.52;100753.19;4997210;28;1175;-51
2022/12/08 00:19:53;;;;;;;;;;;;;;;17.15;48.08;100748.22;4992203;28;1161;-46
2022/12/08 00:22:18;;;;;;;;;;;;;;;17.32;48.79;100754.25;4988422;28;1114;-47
2022/12/08 00:24:45;;;;;;;;;;;;;;;16.97;47.82;100749.63;4996403;28;1169;-45
2022/12/08 00:27:11;;;;;;;;;;;;;;;16.72;46.92;100752.09;4996919;28;1910;-48
2022/12/08 00:29:36;;;;;;;;;;;;;;;16.68;46.89;100740.00;4997056;28;1238;-44
2022/12/08 00:32:02;;;;;;;;;;;;;;;17.32;48.26;100742.41;4996817;28;2251;-46
2022/12/08 00:34:28;;;;;;;;;;;;;;;17.04;48.42;100741.91;4996891;28;1552;-43
2022/12/08 00:36:53;;;;;;;;;;;;;;;18.65;46.90;100740.88;4996339;28;1196;-49
2022/12/08 00:39:18;;;;;;;;;;;;;;;17.68;48.52;100745.84;4996911;28;1179;-47
2022/12/08 00:44:28;;;;;;;;;;;;;;;17.14;47.65;100750.16;4996818;28;1140;-48
2022/12/08 00:46:53;;;;;;;;;;;;;;;17.70;48.41;100751.09;4996724;28;1921;-48
2022/12/08 00:49:19;;;;;;;;;;;;;;;17.11;48.06;100747.97;4996459;28;885;-47
2022/12/08 00:51:44;;;;;;;;;;;;;;;18.59;47.38;100758.53;4982769;28;1144;-48
2022/12/08 00:54:09;;;;;;;;;;;;;;;17.67;48.34;100768.97;4996012;28;1113;-45
2022/12/08 00:56:35;;;;;;;;;;;;;;;17.17;47.78;100765.25;4996550;28;1137;-47
2022/12/08 00:59:01;;;;;;;;;;;;;;;17.88;48.44;100771.59;4996186;28;1137;-44
2022/12/08 01:01:27;;;;;;;;;;;;;;;17.19;48.26;100766.59;4968063;28;2377;-47
2022/12/08 01:03:52;;;;;;;;;;;;;;;18.03;48.40;100756.97;4996451;28;1212;-44
2022/12/08 01:06:17;;;;;;;;;;;;;;;17.72;48.49;100757.91;4996710;28;1973;-44
2022/12/08 01:08:43;;;;;;;;;;;;;;;17.18;47.94;100753.16;4982934;28;1145;-45
2022/12/08 01:11:09;;;;;;;;;;;;;;;17.02;46.95;100753.19;4990275;28;1159;-46
2022/12/08 01:13:35;;;;;;;;;;;;;;;16.81;46.27;100754.28;4995503;28;905;-45
2022/12/08 01:16:00;;;;;;;;;;;;;;;17.76;47.68;100753.50;5000434;28;1112;-43
2022/12/08 01:18:26;;;;;;;;;;;;;;;16.95;47.99;100749.09;5000072;28;1152;-45
2022/12/08 01:20:51;;;;;;;;;;;;;;;17.10;48.04;100751.81;5000261;28;1148;-44
2022/12/08 01:23:16;;;;;;;;;;;;;;;17.52;48.32;100752.53;4999910;28;1257;-43
2022/12/08 01:25:42;;;;;;;;;;;;;;;16.99;47.72;100756.50;5000123;28;1917;-44
2022/12/08 01:28:07;;;;;;;;;;;;;;;17.85;48.04;100758.41;5000040;28;1112;-47
2022/12/08 01:30:33;;;;;;;;;;;;;;;17.17;48.43;100746.84;5000281;28;1136;-49
2022/12/08 01:32:58;;;;;;;;;;;;;;;16.80;47.51;100753.44;4997705;28;2382;-44
2022/12/08 01:35:24;;;;;;;;;;;;;;;17.76;47.92;100748.00;4988243;28;1141;-44
2022/12/08 01:37:49;;;;;;;;;;;;;;;17.26;48.62;100755.34;4985732;28;902;-42
2022/12/08 01:40:15;;;;;;;;;;;;;;;16.92;47.42;100744.97;4993781;28;1121;-45
2022/12/08 01:42:40;;;;;;;;;;;;;;;17.87;47.66;100742.47;4992417;28;1114;-49
2022/12/08 01:45:06;;;;;;;;;;;;;;;17.34;48.36;100735.53;4999097;28;1906;-48
2022/12/08 01:47:41;;;;;;;;;;;;;;;16.87;47.70;100745.78;4999889;28;1149;-44
2022/12/08 01:50:08;;;;;;;;;;;;;;;17.33;48.24;100744.06;4999664;28;1199;-45
2022/12/08 01:52:45;;;;;;;;;;;;;;;17.30;48.31;100739.13;4981885;28;1102;-44
2022/12/08 01:55:13;;;;;;;;;;;;;;;16.80;47.92;100736.97;4999164;28;1160;-42
2022/12/08 01:57:46;;;;;;;;;;;;;;;17.84;47.75;100738.34;4999298;28;1120;-41
2022/12/08 02:00:12;;;;;;;;;;;;;;;16.92;48.53;100745.78;4999506;28;1203;-46
2022/12/08 02:02:57;;;;;;;;;;;;;;;17.98;47.62;100738.59;4999173;28;2567;-49
2022/12/08 02:05:23;;;;;;;;;;;;;;;17.42;48.51;100737.69;4999009;28;1982;-47
2022/12/08 02:07:48;;;;;;;;;;;;;;;16.95;47.79;100733.41;4999389;28;1105;-43
2022/12/08 02:10:17;;;;;;;;;;;;;;;16.82;46.88;100736.72;4999440;28;1108;-43
2022/12/08 02:12:43;;;;;;;;;;;;;;;17.78;47.53;100740.31;4999000;28;1191;-44
2022/12/08 02:15:08;;;;;;;;;;;;;;;16.98;48.12;100737.53;4998523;28;1132;-43
2022/12/08 02:17:34;;;;;;;;;;;;;;;18.14;47.39;100742.06;4999544;28;1183;-45
2022/12/08 02:20:18;;;;;;;;;;;;;;;17.92;48.18;100735.03;4999389;28;1221;-42
2022/12/08 02:22:58;;;;;;;;;;;;;;;17.16;47.81;100741.63;4978822;28;1081;-44
2022/12/08 02:25:36;;;;;;;;;;;;;;;17.47;48.34;100738.78;4992352;28;1909;-46
2022/12/08 02:28:01;;;;;;;;;;;;;;;17.26;48.65;100738.84;4998425;28;1172;-42
2022/12/08 02:30:36;;;;;;;;;;;;;;;17.26;48.20;100738.84;4999343;28;1116;-49
2022/12/08 02:33:07;;;;;;;;;;;;;;;18.09;47.94;100742.91;4998639;28;2365;-46
2022/12/08 02:35:33;;;;;;;;;;;;;;;17.21;48.18;100747.94;4989024;28;1201;-44
2022/12/08 02:38:04;;;;;;;;;;;;;;;18.14;47.87;100747.56;4994184;28;1168;-46
2022/12/08 02:40:30;;;;;;;;;;;;;;;17.51;48.36;100756.38;4990374;28;1188;-43
2022/12/08 02:43:03;;;;;;;;;;;;;;;17.12;47.39;100755.09;4993253;28;1180;-48
2022/12/08 02:45:30;;;;;;;;;;;;;;;16.91;46.76;100749.66;4998681;28;1902;-44
2022/12/08 02:47:55;;;;;;;;;;;;;;;17.62;47.80;100752.47;4981393;28;1129;-45
2022/12/08 02:50:20;;;;;;;;;;;;;;;17.06;47.53;100757.03;4980877;28;1342;-46
2022/12/08 02:52:46;;;;;;;;;;;;;;;18.61;47.23;100762.66;4981038;28;1105;-44
2022/12/08 02:55:27;;;;;;;;;;;;;;;18.17;47.90;100758.00;4998402;28;1136;-47
2022/12/08 02:58:01;;;;;;;;;;;;;;;17.32;48.11;100754.25;4998351;28;1121;-44
2022/12/08 03:00:28;;;;;;;;;;;;;;;17.09;46.77;100750.97;4998352;28;1136;-46
2022/12/08 03:03:12;;;;;;;;;;;;;;;17.86;47.72;100751.81;4997978;28;2300;-44
2022/12/08 03:05:53;;;;;;;;;;;;;;;16.99;47.88;100751.00;4993212;28;1906;-44
2022/12/08 03:08:23;;;;;;;;;;;;;;;17.87;48.03;100756.22;4991943;28;1129;-46
2022/12/08 03:10:49;;;;;;;;;;;;;;;17.41;48.21;100752.53;4980886;28;1132;-43
2022/12/08 03:13:15;;;;;;;;;;;;;;;17.02;47.74;100750.44;4998084;28;1129;-46
2022/12/08 03:15:40;;;;;;;;;;;;;;;16.79;46.87;100756.47;4980749;28;1145;-45
2022/12/08 03:18:06;;;;;;;;;;;;;;;17.94;47.55;100765.03;4998133;28;1141;-44
2022/12/08 03:20:31;;;;;;;;;;;;;;;17.04;47.91;100764.72;4967092;28;1258;-49
2022/12/08 03:22:57;;;;;;;;;;;;;;;16.83;47.19;100768.53;4980620;28;1149;-45
2022/12/08 03:25:23;;;;;;;;;;;;;;;17.21;47.41;100774.59;4980414;28;1973;-47
2022/12/08 03:27:49;;;;;;;;;;;;;;;17.16;48.32;100769.91;4997626;28;1168;-45
2022/12/08 03:30:14;;;;;;;;;;;;;;;17.33;48.29;100774.28;4980345;28;1454;-44
2022/12/08 03:32:40;;;;;;;;;;;;;;;18.68;46.77;100772.50;4996131;28;1729;-47
2022/12/08 03:35:07;;;;;;;;;;;;;;;17.36;48.34;100773.72;4997164;28;1171;-45
2022/12/08 03:37:36;;;;;;;;;;;;;;;17.05;47.15;100769.09;4979897;28;1093;-48
2022/12/08 03:40:03;;;;;;;;;;;;;;;17.19;47.70;100766.59;4997382;28;1124;-44
2022/12/08 03:42:28;;;;;;;;;;;;;;;17.27;48.09;100773.47;4997489;28;1140;-48
2022/12/08 03:44:54;;;;;;;;;;;;;;;16.95;47.53;100777.38;4997276;28;1132;-45
2022/12/08 03:47:19;;;;;;;;;;;;;;;16.83;46.95;100776.78;4997379;28;1971;-45
2022/12/08 03:49:44;;;;;;;;;;;;;;;17.68;47.57;100784.34;4996551;28;1191;-45
2022/12/08 03:52:10;;;;;;;;;;;;;;;16.88;47.93;100785.03;4997494;28;1121;-45
2022/12/08 03:54:35;;;;;;;;;;;;;;;17.73;47.86;100789.81;4985333;28;1299;-44
2022/12/08 03:57:01;;;;;;;;;;;;;;;17.30;48.58;100783.91;4995633;28;1156;-43
2022/12/08 03:59:26;;;;;;;;;;;;;;;18.13;47.59;100789.94;4996861;28;1101;-49
2022/12/08 04:01:51;;;;;;;;;;;;;;;18.78;46.79;100786.22;4996925;28;2229;-45
2022/12/08 04:04:17;;;;;;;;;;;;;;;17.54;48.22;100786.84;4997414;28;1076;-46
2022/12/08 04:06:43;;;;;;;;;;;;;;;17.17;47.58;100798.25;4997208;28;1973;-46
2022/12/08 04:09:08;;;;;;;;;;;;;;;17.64;48.32;100791.50;4997265;28;1093;-43
2022/12/08 04:11:34;;;;;;;;;;;;;;;17.36;48.24;100793.81;4997231;28;1363;-48
2022/12/08 04:13:59;;;;;;;;;;;;;;;16.95;47.64;100793.84;4986126;28;1129;-44
2022/12/08 04:16:26;;;;;;;;;;;;;;;17.92;47.77;100794.72;4997353;28;1140;-48
2022/12/08 04:18:52;;;;;;;;;;;;;;;17.16;48.09;100794.66;4983657;28;1085;-46
2022/12/08 04:21:17;;;;;;;;;;;;;;;16.91;47.97;100790.84;4996900;28;1093;-49
2022/12/08 04:23:43;;;;;;;;;;;;;;;17.58;47.82;100803.63;4997561;28;1179;-46
2022/12/08 04:26:08;;;;;;;;;;;;;;;17.00;47.90;100793.84;4996377;28;1989;-47
2022/12/08 04:28:34;;;;;;;;;;;;;;;17.50;48.22;100795.94;4988915;28;1137;-45
2022/12/08 04:30:59;;;;;;;;;;;;;;;17.14;48.15;100796.88;4987577;28;1145;-49
2022/12/08 04:33:24;;;;;;;;;;;;;;;17.50;48.07;100804.19;4996272;28;1872;-49
2022/12/08 04:35:50;;;;;;;;;;;;;;;18.16;47.34;100800.41;4985679;28;1420;-46
2022/12/08 04:38:15;;;;;;;;;;;;;;;17.26;48.17;100794.66;4994287;28;1160;-44
2022/12/08 04:40:41;;;;;;;;;;;;;;;17.01;47.22;100795.50;4996781;28;1242;-46
2022/12/08 04:43:06;;;;;;;;;;;;;;;16.80;46.65;100799.31;4996936;28;1211;-45
2022/12/08 04:45:32;;;;;;;;;;;;;;;16.67;46.14;100804.25;4989629;28;1973;-45
2022/12/08 04:48:00;;;;;;;;;;;;;;;17.65;47.71;100804.16;4989735;28;1160;-43
2022/12/08 04:50:25;;;;;;;;;;;;;;;16.90;47.84;100813.06;4990881;28;1121;-45
2022/12/08 04:52:51;;;;;;;;;;;;;;;16.67;47.05;100822.66;4988059;28;1180;-47
2022/12/08 04:55:16;;;;;;;;;;;;;;;17.96;47.64;100820.56;4996856;28;1196;-48
2022/12/08 04:57:42;;;;;;;;;;;;;;;17.05;48.29;100828.72;4996492;28;1208;-45
2022/12/08 05:00:08;;;;;;;;;;;;;;;16.66;47.49;100824.59;4996473;28;1204;-44
2022/12/08 05:02:33;;;;;;;;;;;;;;;17.36;48.08;100826.78;4989012;28;2638;-46
2022/12/08 05:04:58;;;;;;;;;;;;;;;16.78;48.00;100840.78;4989652;28;1173;-49
2022/12/08 05:07:24;;;;;;;;;;;;;;;18.45;47.09;100841.81;4996550;28;1918;-49
2022/12/08 05:09:49;;;;;;;;;;;;;;;17.70;48.36;100841.84;4996870;28;1129;-48
2022/12/08 05:12:15;;;;;;;;;;;;;;;17.00;48.27;100843.31;4996458;28;1093;-49
2022/12/08 05:14:40;;;;;;;;;;;;;;;17.61;48.89;100842.41;4996497;28;1124;-48
2022/12/08 05:17:05;;;;;;;;;;;;;;;17.31;48.26;100829.53;4993015;28;1168;-50
2022/12/08 05:19:31;;;;;;;;;;;;;;;17.28;48.56;100838.34;4986312;28;1118;-49
2022/12/08 05:21:56;;;;;;;;;;;;;;;18.20;47.36;100834.50;4996187;28;1164;-46
2022/12/08 05:24:22;;;;;;;;;;;;;;;17.27;48.01;100832.00;4995352;28;1148;-49
2022/12/08 05:26:47;;;;;;;;;;;;;;;16.85;47.59;100838.59;4996163;28;1909;-51
2022/12/08 05:29:12;;;;;;;;;;;;;;;16.80;46.69;100846.81;4996465;28;1168;-48
2022/12/08 05:31:38;;;;;;;;;;;;;;;17.43;47.82;100846.56;4996012;28;1820;-48
2022/12/08 05:34:03;;;;;;;;;;;;;;;16.82;47.99;100852.06;4985573;28;1053;-50
2022/12/08 05:36:29;;;;;;;;;;;;;;;18.03;48.01;100853.28;4979917;28;1232;-48
2022/12/08 05:38:55;;;;;;;;;;;;;;;17.83;48.22;100862.41;4996290;28;1006;-49
2022/12/08 05:41:20;;;;;;;;;;;;;;;17.13;48.36;100865.84;4994733;28;1168;-46
2022/12/08 05:43:46;;;;;;;;;;;;;;;16.84;47.37;100871.81;4983792;28;1156;-49
2022/12/08 05:46:11;;;;;;;;;;;;;;;17.20;48.26;100871.88;4996491;28;1979;-46
2022/12/08 05:48:37;;;;;;;;;;;;;;;17.16;48.36;100877.09;4996177;28;1165;-48
2022/12/08 05:51:02;;;;;;;;;;;;;;;16.83;47.36;100879.25;4996076;28;1181;-48
2022/12/08 05:53:28;;;;;;;;;;;;;;;17.21;47.92;100881.78;4996091;28;1184;-48
2022/12/08 05:55:53;;;;;;;;;;;;;;;16.93;48.27;100878.47;4995900;28;1224;-44
2022/12/08 05:58:19;;;;;;;;;;;;;;;17.12;48.11;100886.97;4997701;28;1148;-46
2022/12/08 06:00:45;;;;;;;;;;;;;;;17.97;47.83;100891.00;4966286;28;1786;-45
2022/12/08 06:03:11;;;;;;;;;;;;;;;17.03;48.45;100905.13;4998835;28;2508;-46
2022/12/08 06:05:36;;;;;;;;;;;;;;;17.64;48.68;100900.69;4999223;28;1975;-47
2022/12/08 06:08:02;;;;;;;;;;;;;;;17.44;48.36;100899.59;4999235;28;1069;-44
2022/12/08 06:10:27;;;;;;;;;;;;;;;16.91;48.09;100903.47;4999502;28;1092;-48
2022/12/08 06:12:53;;;;;;;;;;;;;;;18.13;47.54;100903.63;4999639;28;1212;-46
2022/12/08 06:15:18;;;;;;;;;;;;;;;17.18;48.40;100902.38;4999361;28;1144;-45
2022/12/08 06:17:43;;;;;;;;;;;;;;;16.87;47.50;100909.72;4999466;28;1101;-49
2022/12/08 06:20:09;;;;;;;;;;;;;;;16.76;47.57;100909.72;4999488;28;1204;-44
2022/12/08 06:22:35;;;;;;;;;;;;;;;17.28;48.39;100924.34;4999882;28;1133;-43
2022/12/08 06:25:00;;;;;;;;;;;;;;;16.79;47.69;100922.06;4998953;28;1136;-45
2022/12/08 06:27:25;;;;;;;;;;;;;;;17.49;47.96;100910.59;4999308;28;1973;-43
2022/12/08 06:29:51;;;;;;;;;;;;;;;16.07;50.85;100917.16;4999804;28;1191;-47
2022/12/08 06:32:16;;;;;;;;;;;;;;;16.61;49.98;100917.91;4999749;28;1133;-45
2022/12/08 06:34:42;;;;;;;;;;;;;;;16.51;50.10;100909.63;4998913;28;1191;-44
2022/12/08 06:37:07;;;;;;;;;;;;;;;16.33;50.67;100908.22;4999550;28;1128;-45
2022/12/08 06:39:33;;;;;;;;;;;;;;;16.17;50.65;100915.53;4999154;28;1168;-45
2022/12/08 06:44:42;;;;;;;;;;;;;;;15.87;51.29;100917.84;4998967;28;1183;-48
2022/12/08 06:47:07;;;;;;;;;;;;;;;15.79;51.58;100923.00;4999288;28;1965;-46
2022/12/08 06:49:33;;;;;;;;;;;;;;;15.66;51.75;100921.53;4999386;28;1249;-46
2022/12/08 06:51:58;;;;;;;;;;;;;;;15.59;51.57;100916.28;4998860;28;1173;-43
2022/12/08 06:54:23;;;;;;;;;;;;;;;15.49;52.04;100922.50;4998839;28;1144;-46
2022/12/08 06:56:49;;;;;;;;;;;;;;;15.41;51.99;100925.75;4999003;28;1049;-49
2022/12/08 06:59:16;;;;;;;;;;;;;;;16.98;49.04;100925.16;4999088;28;1101;-44
2022/12/08 07:01:41;;;;;;;;;;;;;;;16.36;50.29;100929.63;4998889;28;1195;-45
2022/12/08 07:04:07;;;;;;;;;;;;;;;15.89;51.60;100928.56;4998450;28;903;-48
2022/12/08 07:06:32;;;;;;;;;;;;;;;15.70;51.89;100939.13;4998543;28;1977;-44
2022/12/08 07:08:58;;;;;;;;;;;;;;;15.55;52.29;100942.56;4998407;28;987;-45
2022/12/08 07:11:23;;;;;;;;;;;;;;;16.91;49.19;100930.09;4998536;28;1188;-43
2022/12/08 07:13:49;;;;;;;;;;;;;;;16.57;49.53;100927.78;4998801;28;1168;-44
2022/12/08 07:16:14;;;;;;;;;;;;;;;16.05;51.05;100913.84;4998249;28;1013;-46
2022/12/08 07:18:41;;;;;;;;;;;;;;;15.79;51.62;100918.34;4998454;28;1153;-43
2022/12/08 07:21:08;;;;;;;;;;;;;;;15.66;52.13;100936.06;4998682;28;1204;-43
2022/12/08 07:23:33;;;;;;;;;;;;;;;17.21;48.33;100934.78;4998325;28;1140;-45
2022/12/08 07:25:59;;;;;;;;;;;;;;;16.49;50.08;100939.28;4997807;28;1902;-43
2022/12/08 07:28:25;;;;;;;;;;;;;;;16.00;51.26;100932.19;4998371;28;947;-44
2022/12/08 07:30:50;;;;;;;;;;;;;;;15.82;51.46;100925.22;4998364;28;1196;-45
2022/12/08 07:33:15;;;;;;;;;;;;;;;16.23;50.90;100933.69;4998021;28;1117;-43
2022/12/08 07:35:41;;;;;;;;;;;;;;;16.98;48.48;100938.88;4997575;28;1203;-43
2022/12/08 07:38:09;;;;;;;;;;;;;;;16.20;50.66;100947.91;4998006;28;1168;-46
2022/12/08 07:40:35;;;;;;;;;;;;;;;15.86;51.49;100951.03;4997874;28;1378;-45
2022/12/08 07:43:00;;;;;;;;;;;;;;;15.70;51.95;100942.69;4997703;28;1247;-45
2022/12/08 07:45:26;;;;;;;;;;;;;;;16.85;49.06;100942.94;4997847;28;1898;-49
2022/12/08 07:47:51;;;;;;;;;;;;;;;16.46;50.10;100940.63;4998033;28;1089;-44
2022/12/08 07:50:17;;;;;;;;;;;;;;;15.96;51.23;100934.63;4997739;28;1172;-47
2022/12/08 07:52:42;;;;;;;;;;;;;;;15.74;51.68;100935.56;4997310;28;1002;-45
2022/12/08 07:55:08;;;;;;;;;;;;;;;16.17;51.02;100926.50;4997897;28;1176;-47
2022/12/08 07:57:33;;;;;;;;;;;;;;;17.23;47.90;100931.78;4997718;28;1192;-48
2022/12/08 07:59:59;;;;;;;;;;;;;;;16.29;50.29;100935.34;4997706;28;1109;-48
2022/12/08 08:02:24;;;;;;;;;;;;;;;15.91;51.60;100937.38;4997722;28;1113;-48
2022/12/08 08:04:50;;;;;;;;;;;;;;;15.73;51.83;100955.03;4997215;28;891;-47
2022/12/08 08:07:15;;;;;;;;;;;;;;;15.59;51.97;100962.06;4996860;28;1988;-46
2022/12/08 08:09:40;;;;;;;;;;;;;;;15.48;52.57;100974.84;4997512;28;1052;-45
2022/12/08 08:12:06;;;;;;;;;;;;;;;17.04;48.61;100973.53;4997415;28;1208;-46
2022/12/08 08:14:32;;;;;;;;;;;;;;;16.45;49.84;100965.59;4997829;28;1121;-46
2022/12/08 08:16:57;;;;;;;;;;;;;;;15.88;51.39;100965.31;4996592;28;1014;-48
2022/12/08 08:19:22;;;;;;;;;;;;;;;15.63;52.23;100966.75;4997412;28;1304;-47
2022/12/08 08:21:48;;;;;;;;;;;;;;;16.00;51.46;100978.81;4996833;28;1137;-43
2022/12/08 08:24:14;;;;;;;;;;;;;;;17.40;47.63;100987.31;4997297;28;1140;-46
2022/12/08 08:26:39;;;;;;;;;;;;;;;16.25;50.10;100967.16;4997166;28;1977;-46
2022/12/08 08:29:05;;;;;;;;;;;;;;;15.91;51.53;100976.56;4997271;28;951;-45
2022/12/08 08:31:30;;;;;;;;;;;;;;;15.68;52.12;100976.91;4997573;28;1239;-42
2022/12/08 08:33:56;;;;;;;;;;;;;;;15.55;52.18;100975.44;4997379;28;1140;-43
2022/12/08 08:36:21;;;;;;;;;;;;;;;16.46;50.44;100978.25;4997125;28;1203;-46
2022/12/08 08:38:47;;;;;;;;;;;;;;;16.85;48.83;100983.34;4997060;28;1121;-42
2022/12/08 08:41:12;;;;;;;;;;;;;;;16.06;51.10;100970.38;4996917;28;1042;-44
2022/12/08 08:43:37;;;;;;;;;;;;;;;15.76;51.69;100973.69;4996976;28;1148;-43
2022/12/08 08:46:03;;;;;;;;;;;;;;;15.57;52.21;100974.09;4996874;28;1902;-46
2022/12/08 08:48:29;;;;;;;;;;;;;;;16.99;48.79;100980.94;4996416;28;1093;-46
2022/12/08 08:50:54;;;;;;;;;;;;;;;16.45;49.83;100979.34;4997654;28;1196;-41
2022/12/08 08:53:20;;;;;;;;;;;;;;;15.90;51.28;100966.69;4996898;28;1018;-44
2022/12/08 08:55:46;;;;;;;;;;;;;;;15.70;52.13;100974.75;4997077;28;1141;-48
2022/12/08 08:58:12;;;;;;;;;;;;;;;15.57;52.38;100967.78;4996912;28;1097;-47
2022/12/08 09:00:37;;;;;;;;;;;;;;;16.54;50.08;100969.50;4996739;28;1168;-45
2022/12/08 09:03:02;;;;;;;;;;;;;;;16.65;49.40;100970.34;4996847;28;1117;-46
2022/12/08 09:05:28;;;;;;;;;;;;;;;15.97;51.27;100944.50;4996243;28;1905;-45
2022/12/08 09:07:54;;;;;;;;;;;;;;;15.74;51.86;100954.75;4996578;28;1117;-43
2022/12/08 09:10:19;;;;;;;;;;;;;;;15.57;52.09;100945.84;4996763;28;1145;-43
2022/12/08 09:12:44;;;;;;;;;;;;;;;16.65;49.82;100937.41;4979582;28;1191;-46
2022/12/08 09:15:10;;;;;;;;;;;;;;;16.77;48.97;100927.84;4996896;28;1104;-45
2022/12/08 09:17:35;;;;;;;;;;;;;;;16.04;51.06;100944.28;4997052;28;1160;-45
2022/12/08 09:20:01;;;;;;;;;;;;;;;15.77;51.77;100939.72;4996955;28;1160;-44
2022/12/08 09:22:27;;;;;;;;;;;;;;;15.60;52.02;100939.03;4997003;28;1251;-46
2022/12/08 09:24:52;;;;;;;;;;;;;;;15.90;51.75;100932.97;4996636;28;1208;-45
2022/12/08 09:27:17;;;;;;;;;;;;;;;17.15;48.20;100932.31;4996799;28;1914;-44
2022/12/08 09:29:43;;;;;;;;;;;;;;;16.17;50.88;100923.78;4996211;28;995;-44
2022/12/08 09:32:09;;;;;;;;;;;;;;;15.80;51.88;100916.47;4998574;28;1144;-45
2022/12/08 09:34:34;;;;;;;;;;;;;;;15.59;52.27;100915.47;5000589;28;1117;-48
2022/12/08 09:37:00;;;;;;;;;;;;;;;15.46;52.41;100914.81;5000294;28;1292;-47
2022/12/08 09:39:25;;;;;;;;;;;;;;;16.64;49.89;100922.84;5000276;28;1132;-44
2022/12/08 09:41:53;;;;;;;;;;;;;;;16.79;48.99;100927.56;5000234;28;1188;-44
2022/12/08 09:44:22;;;;;;;;;;;;;;;16.01;51.20;100923.69;4983223;28;1109;-47
2022/12/08 09:46:47;;;;;;;;;;;;;;;15.74;52.07;100913.66;4999853;28;1991;-46
2022/12/08 09:49:14;;;;;;;;;;;;;;;15.56;52.34;100914.88;4982909;28;1222;-45
2022/12/08 09:51:42;;;;;;;;;;;;;;;15.86;51.98;100905.22;4969369;28;1133;-46
2022/12/08 09:54:10;;;;;;;;;;;;;;;17.35;47.80;100915.84;5000025;28;876;-46
2022/12/08 09:56:36;;;;;;;;;;;;;;;16.36;50.27;100913.16;4983088;28;1149;-46
2022/12/08 09:59:03;;;;;;;;;;;;;;;15.90;51.59;100911.03;4982890;28;1184;-50
2022/12/08 10:01:30;;;;;;;;;;;;;;;15.71;52.04;100914.19;4982092;28;1122;-49
2022/12/08 10:03:55;;;;;;;;;;;;;;;15.56;52.27;100908.59;4999685;28;1203;-47
2022/12/08 10:06:21;;;;;;;;;;;;;;;15.43;52.74;100907.13;5000267;28;1989;-46
2022/12/08 10:08:46;;;;;;;;;;;;;;;16.99;49.07;100910.31;4999826;28;1211;-49
2022/12/08 10:11:15;;;;;;;;;;;;;;;16.83;49.12;100911.34;4999669;28;1169;-45
2022/12/08 10:13:48;;;;;;;;;;;;;;;16.05;51.24;100913.84;4982418;28;1113;-47
2022/12/08 10:16:32;;;;;;;;;;;;;;;15.76;51.99;100904.34;4981850;28;1141;-45
2022/12/08 10:19:08;;;;;;;;;;;;;;;15.54;52.54;100903.38;4999458;28;1475;-51
2022/12/08 10:21:33;;;;;;;;;;;;;;;16.65;49.79;100899.81;4982091;28;1129;-46
2022/12/08 10:24:01;;;;;;;;;;;;;;;16.86;49.21;100899.84;4981976;28;1168;-43
2022/12/08 10:26:27;;;;;;;;;;;;;;;16.12;51.06;100896.31;4982447;28;1983;-45
2022/12/08 10:28:52;;;;;;;;;;;;;;;15.78;51.87;100886.53;4999235;28;1148;-44
2022/12/08 10:31:19;;;;;;;;;;;;;;;15.59;52.37;100880.66;4999117;28;1196;-51
2022/12/08 10:33:44;;;;;;;;;;;;;;;15.48;52.69;100881.66;4999561;28;1164;-53
2022/12/08 10:36:10;;;;;;;;;;;;;;;16.65;50.08;100877.00;4981665;28;1251;-46
2022/12/08 10:38:36;;;;;;;;;;;;;;;16.95;48.92;100876.25;4982264;28;1141;-46
2022/12/08 10:41:01;;;;;;;;;;;;;;;16.09;51.10;100875.75;4999096;28;1157;-47
2022/12/08 10:43:26;;;;;;;;;;;;;;;15.81;52.10;100874.22;4998477;28;1128;-45
2022/12/08 10:45:52;;;;;;;;;;;;;;;15.59;52.63;100872.44;4998933;28;1950;-44
2022/12/08 10:48:17;;;;;;;;;;;;;;;15.46;52.79;100870.97;4999306;28;1121;-47
2022/12/08 10:50:47;;;;;;;;;;;;;;;15.84;52.05;100868.22;4999094;28;1157;-52
2022/12/08 10:53:22;;;;;;;;;;;;;;;17.33;48.06;100870.47;4998309;28;1290;-51
2022/12/08 10:55:47;;;;;;;;;;;;;;;16.26;50.67;100870.03;4998700;28;1197;-48
2022/12/08 10:58:25;;;;;;;;;;;;;;;15.90;51.98;100867.16;4999154;28;1145;-47
2022/12/08 11:00:52;;;;;;;;;;;;;;;15.61;52.54;100859.28;4998849;28;1216;-48
2022/12/08 11:03:22;;;;;;;;;;;;;;;15.49;52.82;100859.47;4998783;28;1121;-48
2022/12/08 11:05:47;;;;;;;;;;;;;;;16.74;49.84;100854.22;4980949;28;1914;-49
2022/12/08 11:08:12;;;;;;;;;;;;;;;16.68;49.92;100854.50;4981408;28;1172;-45
2022/12/08 11:10:41;;;;;;;;;;;;;;;16.01;51.68;100840.59;4981104;28;1240;-47
2022/12/08 11:13:11;;;;;;;;;;;;;;;15.73;52.39;100840.69;4998312;28;1227;-46
2022/12/08 11:15:37;;;;;;;;;;;;;;;15.51;52.68;100832.63;4981350;28;1253;-43
2022/12/08 11:18:19;;;;;;;;;;;;;;;15.59;52.82;100828.56;4998302;28;858;-45
2022/12/08 11:20:44;;;;;;;;;;;;;;;17.27;48.42;100831.19;4980638;28;1145;-46
2022/12/08 11:23:20;;;;;;;;;;;;;;;16.54;50.02;100837.75;4998313;28;1196;-48
2022/12/08 11:25:45;;;;;;;;;;;;;;;15.99;51.78;100827.16;4998409;28;1906;-46
2022/12/08 11:28:11;;;;;;;;;;;;;;;15.72;52.51;100821.78;4998825;28;1196;-47
2022/12/08 11:30:37;;;;;;;;;;;;;;;15.62;52.62;100828.03;4998507;28;915;-47
2022/12/08 11:33:05;;;;;;;;;;;;;;;15.52;53.10;100830.72;4980718;28;1137;-44
2022/12/08 11:35:30;;;;;;;;;;;;;;;17.12;48.83;100822.97;4980688;28;1264;-49
2022/12/08 11:37:57;;;;;;;;;;;;;;;16.48;50.57;100828.66;4998576;28;1219;-43
2022/12/08 11:40:24;;;;;;;;;;;;;;;15.97;51.70;100826.59;4980958;28;1164;-44
2022/12/08 11:42:52;;;;;;;;;;;;;;;15.73;52.43;100817.94;4997812;28;898;-44
2022/12/08 11:45:19;;;;;;;;;;;;;;;15.54;53.02;100825.78;4980587;28;1906;-46
2022/12/08 11:47:54;;;;;;;;;;;;;;;16.65;50.50;100817.44;4980912;28;1196;-46
2022/12/08 11:50:21;;;;;;;;;;;;;;;16.54;50.15;100815.78;4980618;28;1156;-48
2022/12/08 11:52:48;;;;;;;;;;;;;;;15.96;51.95;100816.69;4980526;28;1129;-45
2022/12/08 11:55:14;;;;;;;;;;;;;;;15.71;52.68;100822.88;4996926;28;1199;-46
2022/12/08 11:57:39;;;;;;;;;;;;;;;15.61;52.96;100814.59;4997713;28;1160;-43
2022/12/08 12:00:05;;;;;;;;;;;;;;;17.21;48.87;100807.56;4997994;28;1129;-47
2022/12/08 12:02:41;;;;;;;;;;;;;;;16.41;50.83;100812.47;4981338;28;1046;-48
2022/12/08 12:05:25;;;;;;;;;;;;;;;15.99;51.99;100815.34;4980316;28;987;-43
2022/12/08 12:08:09;;;;;;;;;;;;;;;15.74;52.52;100809.47;4998083;28;1097;-45
2022/12/08 12:10:47;;;;;;;;;;;;;;;15.56;52.72;100815.41;4997747;28;1137;-47
2022/12/08 12:13:38;;;;;;;;;;;;;;;15.43;53.03;100815.88;4997591;28;1156;-48
2022/12/08 12:16:11;;;;;;;;;;;;;;;17.17;48.99;100811.97;4974545;28;1085;-49
2022/12/08 12:18:39;;;;;;;;;;;;;;;16.44;50.65;100819.31;4980040;28;1002;-47
2022/12/08 12:21:17;;;;;;;;;;;;;;;15.95;52.06;100817.81;4997539;28;1089;-44
2022/12/08 12:23:55;;;;;;;;;;;;;;;15.72;52.67;100813.56;4997377;28;1101;-45
2022/12/08 12:26:21;;;;;;;;;;;;;;;15.57;52.95;100803.31;4996997;28;1980;-44
2022/12/08 12:29:07;;;;;;;;;;;;;;;17.16;49.03;100797.41;4997533;28;1144;-43
2022/12/08 12:31:33;;;;;;;;;;;;;;;16.36;51.16;100804.22;4973076;28;1697;-43
2022/12/08 12:34:25;;;;;;;;;;;;;;;15.93;52.01;100799.97;4997314;28;1199;-45
2022/12/08 12:36:57;;;;;;;;;;;;;;;15.71;52.83;100801.78;4993943;28;1248;-42
2022/12/08 12:39:24;;;;;;;;;;;;;;;15.55;53.11;100800.84;4997403;28;1168;-49
2022/12/08 12:41:54;;;;;;;;;;;;;;;16.49;51.13;100797.38;4979515;28;1165;-45
2022/12/08 12:44:32;;;;;;;;;;;;;;;17.14;48.90;100804.25;4997000;28;1212;-47
2022/12/08 12:46:58;;;;;;;;;;;;;;;16.19;51.63;100795.41;4997310;28;1917;-46
2022/12/08 12:49:44;;;;;;;;;;;;;;;15.88;52.19;100798.03;4996832;28;1156;-50
2022/12/08 12:52:22;;;;;;;;;;;;;;;15.65;52.79;100794.59;4996963;28;1109;-51
2022/12/08 12:54:50;;;;;;;;;;;;;;;15.95;52.54;100801.34;4996947;28;886;-46
2022/12/08 12:57:19;;;;;;;;;;;;;;;17.11;49.28;100794.69;4996719;28;1186;-46
2022/12/08 12:59:45;;;;;;;;;;;;;;;16.19;51.51;100793.47;4997140;28;1121;-44